Noshiro, Japan
Current Conditions -  °F | °C
As of 10:00 AM on Tuesday 25 Nov 2014 (Local Time) from RJSK Reporting Station
Haze Haze  
Wind Chill: 43°   Ceiling: 10000
Heat Index: 43°   Visibility: 3mi
Dew Point: 41°   Wind: 1mph
Humidity: 93%   Direction: NA
Pressure: 30.06"   Gusts: NA
Location:  40.2°N, 140.03°E
Report Text: RJSK 250100Z VRB01KT 5000 BR SCT003 BKN100 BKN200 06/05 Q1018
Loading
Personal Weather Stations






























Interactive Weather Map New forecast layout! Learn more

10-Day Weather Forecast

Advertisements
Track Severe Weather on mobile